sensor_id;sensor_type;location;lat;lon;timestamp;pressure;altitude;pressure_sealevel;temperature;humidity
22031;BME280;11179;52.106;21.024;2024-03-08T00:01:55;101374.38;;;-2.75;66.15
22031;BME280;11179;52.106;21.024;2024-03-08T00:04:20;101366.44;;;-2.76;66.23
22031;BME280;11179;52.106;21.024;2024-03-08T00:06:45;101379.88;;;-2.76;66.30
22031;BME280;11179;52.106;21.024;2024-03-08T00:09:11;101376.50;;;-2.78;66.47
22031;BME280;11179;52.106;21.024;2024-03-08T00:11:37;101372.28;;;-2.81;66.44
22031;BME280;11179;52.106;21.024;2024-03-08T00:14:02;101371.72;;;-2.84;66.42
22031;BME280;11179;52.106;21.024;2024-03-08T00:16:32;101369.31;;;-2.87;66.55
22031;BME280;11179;52.106;21.024;2024-03-08T00:18:57;101373.72;;;-2.86;66.40
22031;BME280;11179;52.106;21.024;2024-03-08T00:21:22;101375.69;;;-2.88;66.69
22031;BME280;11179;52.106;21.024;2024-03-08T00:23:47;101375.69;;;-2.88;66.61
22031;BME280;11179;52.106;21.024;2024-03-08T00:26:13;101368.91;;;-2.92;66.58
22031;BME280;11179;52.106;21.024;2024-03-08T00:28:38;101374.28;;;-2.92;66.72
22031;BME280;11179;52.106;21.024;2024-03-08T00:31:03;101371.59;;;-2.92;66.76
22031;BME280;11179;52.106;21.024;2024-03-08T00:33:29;101370.22;;;-2.96;66.86
22031;BME280;11179;52.106;21.024;2024-03-08T00:35:54;101380.97;;;-2.96;66.76
22031;BME280;11179;52.106;21.024;2024-03-08T00:38:19;101370.63;;;-3.01;66.87
22031;BME280;11179;52.106;21.024;2024-03-08T00:40:45;101371.50;;;-3.00;66.70
22031;BME280;11179;52.106;21.024;2024-03-08T00:43:10;101366.69;;;-3.07;66.80
22031;BME280;11179;52.106;21.024;2024-03-08T00:45:36;101374.59;;;-3.05;66.64
22031;BME280;11179;52.106;21.024;2024-03-08T00:48:03;101370.38;;;-3.08;66.98
22031;BME280;11179;52.106;21.024;2024-03-08T00:50:30;101365.03;;;-3.08;67.10
22031;BME280;11179;52.106;21.024;2024-03-08T00:52:56;101362.75;;;-3.12;67.14
22031;BME280;11179;52.106;21.024;2024-03-08T00:55:21;101364.59;;;-3.13;67.04
22031;BME280;11179;52.106;21.024;2024-03-08T00:57:46;101361.91;;;-3.13;67.06
22031;BME280;11179;52.106;21.024;2024-03-08T01:00:12;101364.03;;;-3.16;67.34
22031;BME280;11179;52.106;21.024;2024-03-08T01:02:39;101361.34;;;-3.16;67.26
22031;BME280;11179;52.106;21.024;2024-03-08T01:05:04;101359.66;;;-3.17;67.32
22031;BME280;11179;52.106;21.024;2024-03-08T01:07:35;101359.78;;;-3.19;67.46
22031;BME280;11179;52.106;21.024;2024-03-08T01:10:02;101365.03;;;-3.17;67.35
22031;BME280;11179;52.106;21.024;2024-03-08T01:12:28;101354.59;;;-3.20;67.60
22031;BME280;11179;52.106;21.024;2024-03-08T01:14:54;101362.47;;;-3.19;67.40
22031;BME280;11179;52.106;21.024;2024-03-08T01:17:19;101357.41;;;-3.22;67.42
22031;BME280;11179;52.106;21.024;2024-03-08T01:19:45;101357.69;;;-3.25;67.52
22031;BME280;11179;52.106;21.024;2024-03-08T01:22:10;101333.69;;;-3.36;67.55
22031;BME280;11179;52.106;21.024;2024-03-08T01:24:36;101354.31;;;-3.27;67.57
22031;BME280;11179;52.106;21.024;2024-03-08T01:27:02;101348.94;;;-3.27;67.74
22031;BME280;11179;52.106;21.024;2024-03-08T01:29:27;101344.84;;;-3.31;67.68
22031;BME280;11179;52.106;21.024;2024-03-08T01:31:55;101346.66;;;-3.31;67.58
22031;BME280;11179;52.106;21.024;2024-03-08T01:34:21;101337.75;;;-3.32;67.65
22031;BME280;11179;52.106;21.024;2024-03-08T01:36:47;101349.50;;;-3.33;67.67
22031;BME280;11179;52.106;21.024;2024-03-08T01:39:13;101353.19;;;-3.34;67.69
22031;BME280;11179;52.106;21.024;2024-03-08T01:41:38;101341.03;;;-3.38;67.79
22031;BME280;11179;52.106;21.024;2024-03-08T01:44:05;101348.41;;;-3.40;67.88
22031;BME280;11179;52.106;21.024;2024-03-08T01:46:32;101341.31;;;-3.41;67.75
22031;BME280;11179;52.106;21.024;2024-03-08T01:48:58;101339.06;;;-3.46;67.90
22031;BME280;11179;52.106;21.024;2024-03-08T01:51:26;101338.53;;;-3.49;67.54
22031;BME280;11179;52.106;21.024;2024-03-08T01:53:55;101346.44;;;-3.48;67.84
22031;BME280;11179;52.106;21.024;2024-03-08T01:56:20;101340.50;;;-3.51;67.80
22031;BME280;11179;52.106;21.024;2024-03-08T01:58:46;101337.09;;;-3.53;67.88
22031;BME280;11179;52.106;21.024;2024-03-08T02:01:12;101340.63;;;-3.53;67.74
22031;BME280;11179;52.106;21.024;2024-03-08T02:03:41;101339.09;;;-3.55;67.86
22031;BME280;11179;52.106;21.024;2024-03-08T02:06:11;101334.56;;;-3.55;68.08
22031;BME280;11179;52.106;21.024;2024-03-08T02:08:36;101329.59;;;-3.59;67.95
22031;BME280;11179;52.106;21.024;2024-03-08T02:11:02;101329.47;;;-3.58;68.12
22031;BME280;11179;52.106;21.024;2024-03-08T02:13:27;101326.94;;;-3.59;68.06
22031;BME280;11179;52.106;21.024;2024-03-08T02:18:19;101318.88;;;-3.59;68.36
22031;BME280;11179;52.106;21.024;2024-03-08T02:20:49;101316.50;;;-3.62;68.21
22031;BME280;11179;52.106;21.024;2024-03-08T02:23:15;101321.31;;;-3.66;68.28
22031;BME280;11179;52.106;21.024;2024-03-08T02:25:40;101323.00;;;-3.65;68.23
22031;BME280;11179;52.106;21.024;2024-03-08T02:28:08;101319.88;;;-3.70;68.31
22031;BME280;11179;52.106;21.024;2024-03-08T02:30:34;101319.75;;;-3.68;68.35
22031;BME280;11179;52.106;21.024;2024-03-08T02:32:59;101314.66;;;-3.71;68.24
22031;BME280;11179;52.106;21.024;2024-03-08T02:35:24;101310.59;;;-3.75;68.18
22031;BME280;11179;52.106;21.024;2024-03-08T02:37:50;101317.47;;;-3.73;68.28
22031;BME280;11179;52.106;21.024;2024-03-08T02:40:15;101312.28;;;-3.74;68.25
22031;BME280;11179;52.106;21.024;2024-03-08T02:42:41;101320.16;;;-3.73;68.28
22031;BME280;11179;52.106;21.024;2024-03-08T02:45:07;101319.63;;;-3.76;68.25
22031;BME280;11179;52.106;21.024;2024-03-08T02:47:35;101320.75;;;-3.79;68.32
22031;BME280;11179;52.106;21.024;2024-03-08T02:50:00;101304.34;;;-3.86;68.36
22031;BME280;11179;52.106;21.024;2024-03-08T02:52:27;101301.38;;;-3.83;68.26
22031;BME280;11179;52.106;21.024;2024-03-08T02:54:52;101306.34;;;-3.88;68.35
22031;BME280;11179;52.106;21.024;2024-03-08T02:57:17;101308.72;;;-3.85;68.21
22031;BME280;11179;52.106;21.024;2024-03-08T02:59:43;101307.03;;;-3.86;68.45
22031;BME280;11179;52.106;21.024;2024-03-08T03:02:08;101307.19;;;-3.87;68.42
22031;BME280;11179;52.106;21.024;2024-03-08T03:04:35;101301.84;;;-3.87;68.52
22031;BME280;11179;52.106;21.024;2024-03-08T03:07:00;101303.66;;;-3.88;68.49
22031;BME280;11179;52.106;21.024;2024-03-08T03:09:26;101310.03;;;-3.89;68.46
22031;BME280;11179;52.106;21.024;2024-03-08T03:11:56;101307.47;;;-3.90;68.44
22031;BME280;11179;52.106;21.024;2024-03-08T03:14:22;101315.66;;;-3.92;68.48
22031;BME280;11179;52.106;21.024;2024-03-08T03:16:47;101301.69;;;-3.95;68.46
22031;BME280;11179;52.106;21.024;2024-03-08T03:19:13;101297.44;;;-3.98;68.29
22031;BME280;11179;52.106;21.024;2024-03-08T03:21:38;101304.50;;;-3.97;68.41
22031;BME280;11179;52.106;21.024;2024-03-08T03:24:04;101298.72;;;-4.02;68.35
22031;BME280;11179;52.106;21.024;2024-03-08T03:26:35;101303.53;;;-4.05;68.45
22031;BME280;11179;52.106;21.024;2024-03-08T03:29:02;101305.34;;;-4.06;68.18
22031;BME280;11179;52.106;21.024;2024-03-08T03:31:28;101310.84;;;-4.07;68.37
22031;BME280;11179;52.106;21.024;2024-03-08T03:33:54;101299.88;;;-4.14;68.42
22031;BME280;11179;52.106;21.024;2024-03-08T03:36:19;101306.06;;;-4.13;68.29
22031;BME280;11179;52.106;21.024;2024-03-08T03:38:45;101300.97;;;-4.17;68.45
22031;BME280;11179;52.106;21.024;2024-03-08T03:41:10;101302.94;;;-4.19;68.28
22031;BME280;11179;52.106;21.024;2024-03-08T03:43:37;101304.91;;;-4.21;68.30
22031;BME280;11179;52.106;21.024;2024-03-08T03:46:06;101303.22;;;-4.22;68.43
22031;BME280;11179;52.106;21.024;2024-03-08T03:48:32;101295.44;;;-4.25;68.40
22031;BME280;11179;52.106;21.024;2024-03-08T03:50:57;101290.81;;;-4.23;68.52
22031;BME280;11179;52.106;21.024;2024-03-08T03:53:23;101293.63;;;-4.24;68.43
22031;BME280;11179;52.106;21.024;2024-03-08T03:55:51;101298.97;;;-4.24;68.25
22031;BME280;11179;52.106;21.024;2024-03-08T03:58:16;101291.25;;;-4.27;68.54
22031;BME280;11179;52.106;21.024;2024-03-08T04:00:47;101290.53;;;-4.29;68.40
22031;BME280;11179;52.106;21.024;2024-03-08T04:03:12;101295.03;;;-4.30;68.29
22031;BME280;11179;52.106;21.024;2024-03-08T04:05:38;101289.81;;;-4.31;68.47
22031;BME280;11179;52.106;21.024;2024-03-08T04:08:04;101288.97;;;-4.32;68.46
22031;BME280;11179;52.106;21.024;2024-03-08T04:10:29;101293.88;;;-4.37;68.62
22031;BME280;11179;52.106;21.024;2024-03-08T04:12:55;101285.72;;;-4.35;68.55
22031;BME280;11179;52.106;21.024;2024-03-08T04:15:21;101291.06;;;-4.35;68.51
22031;BME280;11179;52.106;21.024;2024-03-08T04:17:48;101279.78;;;-4.39;68.46
22031;BME280;11179;52.106;21.024;2024-03-08T04:20:13;101286.69;;;-4.36;68.56
22031;BME280;11179;52.106;21.024;2024-03-08T04:22:39;101285.13;;;-4.39;68.47
22031;BME280;11179;52.106;21.024;2024-03-08T04:25:06;101287.81;;;-4.39;68.40
22031;BME280;11179;52.106;21.024;2024-03-08T04:27:35;101285.44;;;-4.42;68.61
22031;BME280;11179;52.106;21.024;2024-03-08T04:30:01;101284.28;;;-4.39;68.66
22031;BME280;11179;52.106;21.024;2024-03-08T04:32:26;101286.28;;;-4.41;68.48
22031;BME280;11179;52.106;21.024;2024-03-08T04:34:54;101282.75;;;-4.42;68.50
22031;BME280;11179;52.106;21.024;2024-03-08T04:37:20;101280.34;;;-4.45;68.56
22031;BME280;11179;52.106;21.024;2024-03-08T04:39:48;101281.31;;;-4.46;68.56
22031;BME280;11179;52.106;21.024;2024-03-08T04:42:14;101282.31;;;-4.47;68.54
22031;BME280;11179;52.106;21.024;2024-03-08T04:44:39;101278.78;;;-4.47;68.48
22031;BME280;11179;52.106;21.024;2024-03-08T04:47:05;101276.50;;;-4.52;68.51
22031;BME280;11179;52.106;21.024;2024-03-08T04:49:32;101266.50;;;-4.60;68.39
22031;BME280;11179;52.106;21.024;2024-03-08T04:52:03;101277.78;;;-4.56;68.51
22031;BME280;11179;52.106;21.024;2024-03-08T04:54:29;101280.47;;;-4.56;68.49
22031;BME280;11179;52.106;21.024;2024-03-08T04:56:54;101284.00;;;-4.56;68.46
22031;BME280;11179;52.106;21.024;2024-03-08T04:59:19;101287.53;;;-4.55;68.54
22031;BME280;11179;52.106;21.024;2024-03-08T05:01:45;101286.69;;;-4.56;68.62
22031;BME280;11179;52.106;21.024;2024-03-08T05:04:10;101285.69;;;-4.55;68.46
22031;BME280;11179;52.106;21.024;2024-03-08T05:06:36;101276.22;;;-4.59;68.54
22031;BME280;11179;52.106;21.024;2024-03-08T05:09:02;101283.88;;;-4.54;68.48
22031;BME280;11179;52.106;21.024;2024-03-08T05:11:45;101288.06;;;-4.52;68.55
22031;BME280;11179;52.106;21.024;2024-03-08T05:14:11;101282.72;;;-4.52;68.58
22031;BME280;11179;52.106;21.024;2024-03-08T05:16:42;101280.88;;;-4.51;68.56
22031;BME280;11179;52.106;21.024;2024-03-08T05:19:07;101285.13;;;-4.48;68.65
22031;BME280;11179;52.106;21.024;2024-03-08T05:21:32;101283.44;;;-4.49;68.81
22031;BME280;11179;52.106;21.024;2024-03-08T05:23:58;101278.66;;;-4.46;68.67
22031;BME280;11179;52.106;21.024;2024-03-08T05:26:23;101287.97;;;-4.40;68.68
22031;BME280;11179;52.106;21.024;2024-03-08T05:28:49;101285.31;;;-4.40;68.64
22031;BME280;11179;52.106;21.024;2024-03-08T05:31:19;101281.47;;;-4.38;68.91
22031;BME280;11179;52.106;21.024;2024-03-08T05:33:47;101283.34;;;-4.29;68.69
22031;BME280;11179;52.106;21.024;2024-03-08T05:36:12;101285.03;;;-4.18;68.73
22031;BME280;11179;52.106;21.024;2024-03-08T05:38:40;101283.75;;;-3.95;68.93
22031;BME280;11179;52.106;21.024;2024-03-08T05:41:06;101277.50;;;-3.66;68.87
22031;BME280;11179;52.106;21.024;2024-03-08T05:43:32;101264.06;;;-3.47;68.67
22031;BME280;11179;52.106;21.024;2024-03-08T05:45:58;101274.03;;;-3.30;68.45
22031;BME280;11179;52.106;21.024;2024-03-08T05:48:23;101278.78;;;-3.14;68.32
22031;BME280;11179;52.106;21.024;2024-03-08T05:50:50;101265.28;;;-3.04;68.03
22031;BME280;11179;52.106;21.024;2024-03-08T05:53:15;101270.66;;;-2.95;68.03
22031;BME280;11179;52.106;21.024;2024-03-08T05:55:41;101262.97;;;-2.90;67.81
22031;BME280;11179;52.106;21.024;2024-03-08T05:58:06;101257.16;;;-2.85;67.71
22031;BME280;11179;52.106;21.024;2024-03-08T06:00:34;101273.63;;;-2.70;67.55
22031;BME280;11179;52.106;21.024;2024-03-08T06:03:01;101268.31;;;-2.62;67.51
22031;BME280;11179;52.106;21.024;2024-03-08T06:05:27;101268.59;;;-2.56;67.40
22031;BME280;11179;52.106;21.024;2024-03-08T06:07:53;101274.75;;;-2.46;67.49
22031;BME280;11179;52.106;21.024;2024-03-08T06:10:19;101274.53;;;-2.34;67.38
22031;BME280;11179;52.106;21.024;2024-03-08T06:12:44;101275.31;;;-2.07;67.74
22031;BME280;11179;52.106;21.024;2024-03-08T06:15:10;101272.41;;;-1.70;67.76
22031;BME280;11179;52.106;21.024;2024-03-08T06:17:39;101274.94;;;-1.16;67.59
22031;BME280;11179;52.106;21.024;2024-03-08T06:20:05;101270.66;;;-0.67;67.33
22031;BME280;11179;52.106;21.024;2024-03-08T06:22:38;101278.38;;;-0.14;67.36
22031;BME280;11179;52.106;21.024;2024-03-08T06:25:08;101271.63;;;0.31;66.75
22031;BME280;11179;52.106;21.024;2024-03-08T06:27:33;101271.41;;;0.73;66.46
22031;BME280;11179;52.106;21.024;2024-03-08T06:29:59;101276.53;;;1.15;66.04
22031;BME280;11179;52.106;21.024;2024-03-08T06:32:25;101278.22;;;1.55;65.92
22031;BME280;11179;52.106;21.024;2024-03-08T06:34:50;101280.69;;;1.96;65.46
22031;BME280;11179;52.106;21.024;2024-03-08T06:37:16;101273.25;;;2.35;64.97
22031;BME280;11179;52.106;21.024;2024-03-08T06:39:49;101266.41;;;2.62;64.33
22031;BME280;11179;52.106;21.024;2024-03-08T06:42:16;101261.94;;;2.98;63.79
22031;BME280;11179;52.106;21.024;2024-03-08T06:44:42;101261.63;;;3.37;63.30
22031;BME280;11179;52.106;21.024;2024-03-08T06:47:14;101270.53;;;3.82;62.71
22031;BME280;11179;52.106;21.024;2024-03-08T06:49:41;101267.16;;;4.16;61.90
22031;BME280;11179;52.106;21.024;2024-03-08T06:52:06;101264.28;;;4.46;61.34
22031;BME280;11179;52.106;21.024;2024-03-08T06:54:34;101269.66;;;4.67;60.84
22031;BME280;11179;52.106;21.024;2024-03-08T06:57:01;101269.47;;;4.96;60.14
22031;BME280;11179;52.106;21.024;2024-03-08T06:59:28;101262.09;;;5.25;59.45
22031;BME280;11179;52.106;21.024;2024-03-08T07:01:53;101260.31;;;5.45;58.93
22031;BME280;11179;52.106;21.024;2024-03-08T07:04:19;101263.50;;;5.62;58.64
22031;BME280;11179;52.106;21.024;2024-03-08T07:06:45;101260.06;;;5.94;58.03
22031;BME280;11179;52.106;21.024;2024-03-08T07:09:10;101258.84;;;6.30;57.37
22031;BME280;11179;52.106;21.024;2024-03-08T07:11:37;101250.69;;;6.56;56.91
22031;BME280;11179;52.106;21.024;2024-03-08T07:14:02;101251.09;;;6.86;56.13
22031;BME280;11179;52.106;21.024;2024-03-08T07:16:30;101260.31;;;7.05;55.62
22031;BME280;11179;52.106;21.024;2024-03-08T07:18:56;101252.31;;;7.16;54.80
22031;BME280;11179;52.106;21.024;2024-03-08T07:21:22;101249.91;;;7.33;54.38
22031;BME280;11179;52.106;21.024;2024-03-08T07:23:47;101245.50;;;7.39;54.38
22031;BME280;11179;52.106;21.024;2024-03-08T07:26:27;101246.66;;;7.62;53.84
22031;BME280;11179;52.106;21.024;2024-03-08T07:28:53;101256.66;;;7.82;52.98
22031;BME280;11179;52.106;21.024;2024-03-08T07:31:22;101248.25;;;7.77;52.60
22031;BME280;11179;52.106;21.024;2024-03-08T07:34:05;101239.00;;;7.78;52.34
22031;BME280;11179;52.106;21.024;2024-03-08T07:36:33;101252.38;;;7.92;51.94
22031;BME280;11179;52.106;21.024;2024-03-08T07:38:58;101251.75;;;7.90;51.94
22031;BME280;11179;52.106;21.024;2024-03-08T07:41:24;101248.06;;;8.10;51.53
22031;BME280;11179;52.106;21.024;2024-03-08T07:43:50;101240.19;;;8.26;51.10
22031;BME280;11179;52.106;21.024;2024-03-08T07:46:15;101246.78;;;8.44;50.64
22031;BME280;11179;52.106;21.024;2024-03-08T07:48:43;101242.72;;;8.53;50.08
22031;BME280;11179;52.106;21.024;2024-03-08T07:51:10;101241.72;;;8.72;49.48
22031;BME280;11179;52.106;21.024;2024-03-08T07:53:37;101233.31;;;8.92;48.99
22031;BME280;11179;52.106;21.024;2024-03-08T07:56:03;101236.19;;;8.97;48.71
22031;BME280;11179;52.106;21.024;2024-03-08T07:58:30;101227.38;;;9.13;48.22
22031;BME280;11179;52.106;21.024;2024-03-08T08:00:55;101230.34;;;9.30;47.42
22031;BME280;11179;52.106;21.024;2024-03-08T08:03:21;101234.00;;;9.42;47.05
22031;BME280;11179;52.106;21.024;2024-03-08T08:05:46;101232.28;;;9.59;46.51
22031;BME280;11179;52.106;21.024;2024-03-08T08:08:12;101228.78;;;9.70;46.18
22031;BME280;11179;52.106;21.024;2024-03-08T08:10:37;101225.91;;;9.84;45.72
22031;BME280;11179;52.106;21.024;2024-03-08T08:13:03;101231.03;;;9.92;45.24
22031;BME280;11179;52.106;21.024;2024-03-08T08:15:29;101229.16;;;10.04;44.71
22031;BME280;11179;52.106;21.024;2024-03-08T08:17:55;101225.16;;;10.18;44.59
22031;BME280;11179;52.106;21.024;2024-03-08T08:20:20;101222.44;;;10.30;44.33
22031;BME280;11179;52.106;21.024;2024-03-08T08:22:47;101218.53;;;10.37;44.15
22031;BME280;11179;52.106;21.024;2024-03-08T08:25:13;101208.34;;;10.26;42.96
22031;BME280;11179;52.106;21.024;2024-03-08T08:27:41;101216.31;;;10.16;43.05
22031;BME280;11179;52.106;21.024;2024-03-08T08:30:08;101213.50;;;10.34;43.04
22031;BME280;11179;52.106;21.024;2024-03-08T08:32:37;101216.88;;;10.60;42.51
22031;BME280;11179;52.106;21.024;2024-03-08T08:35:03;101223.34;;;10.77;42.07
22031;BME280;11179;52.106;21.024;2024-03-08T08:37:30;101213.53;;;10.81;42.00
22031;BME280;11179;52.106;21.024;2024-03-08T08:39:56;101208.25;;;10.79;41.42
22031;BME280;11179;52.106;21.024;2024-03-08T08:42:21;101202.75;;;10.79;41.54
22031;BME280;11179;52.106;21.024;2024-03-08T08:44:47;101209.59;;;10.77;41.07
22031;BME280;11179;52.106;21.024;2024-03-08T08:47:14;101204.66;;;10.79;41.27
22031;BME280;11179;52.106;21.024;2024-03-08T08:49:44;101212.44;;;10.94;40.91
22031;BME280;11179;52.106;21.024;2024-03-08T08:52:09;101205.78;;;10.90;40.78
22031;BME280;11179;52.106;21.024;2024-03-08T08:54:34;101205.88;;;10.95;40.44
22031;BME280;11179;52.106;21.024;2024-03-08T08:57:01;101202.78;;;10.91;40.06
22031;BME280;11179;52.106;21.024;2024-03-08T08:59:32;101195.63;;;10.90;39.61
22031;BME280;11179;52.106;21.024;2024-03-08T09:01:58;101200.28;;;10.90;39.62
22031;BME280;11179;52.106;21.024;2024-03-08T09:04:23;101203.47;;;10.98;39.19
22031;BME280;11179;52.106;21.024;2024-03-08T09:06:49;101191.78;;;11.03;38.79
22031;BME280;11179;52.106;21.024;2024-03-08T09:09:15;101196.81;;;11.17;38.93
22031;BME280;11179;52.106;21.024;2024-03-08T09:11:42;101193.47;;;11.15;38.34
22031;BME280;11179;52.106;21.024;2024-03-08T09:14:08;101187.44;;;11.18;38.17
22031;BME280;11179;52.106;21.024;2024-03-08T09:16:34;101185.06;;;11.22;37.90
22031;BME280;11179;52.106;21.024;2024-03-08T09:18:59;101179.09;;;11.25;37.51
22031;BME280;11179;52.106;21.024;2024-03-08T09:21:24;101181.47;;;11.22;37.30
22031;BME280;11179;52.106;21.024;2024-03-08T09:23:50;101177.78;;;11.28;37.22
22031;BME280;11179;52.106;21.024;2024-03-08T09:26:16;101191.16;;;11.24;37.05
22031;BME280;11179;52.106;21.024;2024-03-08T09:28:42;101177.28;;;11.19;36.87
22031;BME280;11179;52.106;21.024;2024-03-08T09:31:07;101181.00;;;11.25;36.44
22031;BME280;11179;52.106;21.024;2024-03-08T09:33:32;101164.66;;;11.18;36.37
22031;BME280;11179;52.106;21.024;2024-03-08T09:35:58;101174.81;;;11.17;36.51
22031;BME280;11179;52.106;21.024;2024-03-08T09:38:23;101176.69;;;11.29;36.39
22031;BME280;11179;52.106;21.024;2024-03-08T09:40:50;101171.53;;;11.32;36.52
22031;BME280;11179;52.106;21.024;2024-03-08T09:43:16;101173.97;;;11.17;36.45
22031;BME280;11179;52.106;21.024;2024-03-08T09:45:45;101175.72;;;11.11;36.42
22031;BME280;11179;52.106;21.024;2024-03-08T09:48:12;101169.16;;;11.12;36.57
22031;BME280;11179;52.106;21.024;2024-03-08T09:50:40;101167.50;;;11.11;36.25
22031;BME280;11179;52.106;21.024;2024-03-08T09:53:08;101165.59;;;11.12;35.99
22031;BME280;11179;52.106;21.024;2024-03-08T09:55:36;101176.34;;;11.13;36.01
22031;BME280;11179;52.106;21.024;2024-03-08T09:58:05;101168.34;;;11.00;35.99
22031;BME280;11179;52.106;21.024;2024-03-08T10:00:49;101160.47;;;10.92;35.92
22031;BME280;11179;52.106;21.024;2024-03-08T10:03:15;101170.06;;;10.90;36.29
22031;BME280;11179;52.106;21.024;2024-03-08T10:05:41;101167.16;;;10.96;36.15
22031;BME280;11179;52.106;21.024;2024-03-08T10:08:07;101169.47;;;10.76;35.96
22031;BME280;11179;52.106;21.024;2024-03-08T10:10:36;101159.19;;;10.60;35.84
22031;BME280;11179;52.106;21.024;2024-03-08T10:13:06;101162.28;;;10.40;35.86
22031;BME280;11179;52.106;21.024;2024-03-08T10:15:31;101167.66;;;10.35;35.81
22031;BME280;11179;52.106;21.024;2024-03-08T10:17:58;101164.09;;;10.34;35.86
22031;BME280;11179;52.106;21.024;2024-03-08T10:20:24;101161.94;;;10.36;35.85
22031;BME280;11179;52.106;21.024;2024-03-08T10:22:49;101155.72;;;10.29;36.05
22031;BME280;11179;52.106;21.024;2024-03-08T10:25:16;101150.81;;;10.20;36.02
22031;BME280;11179;52.106;21.024;2024-03-08T10:27:42;101156.91;;;10.10;36.28
22031;BME280;11179;52.106;21.024;2024-03-08T10:30:15;101155.84;;;10.11;36.37
22031;BME280;11179;52.106;21.024;2024-03-08T10:32:41;101147.59;;;10.11;36.21
22031;BME280;11179;52.106;21.024;2024-03-08T10:35:07;101142.69;;;10.13;36.02
22031;BME280;11179;52.106;21.024;2024-03-08T10:37:44;101148.16;;;10.13;35.85
22031;BME280;11179;52.106;21.024;2024-03-08T10:40:15;101145.31;;;10.08;35.90
22031;BME280;11179;52.106;21.024;2024-03-08T10:42:51;101146.03;;;10.03;35.50
22031;BME280;11179;52.106;21.024;2024-03-08T10:48:04;101138.03;;;10.02;35.75
22031;BME280;11179;52.106;21.024;2024-03-08T10:50:35;101140.16;;;10.00;35.47
22031;BME280;11179;52.106;21.024;2024-03-08T10:53:01;101136.13;;;10.02;35.73
22031;BME280;11179;52.106;21.024;2024-03-08T10:55:28;101135.88;;;10.04;35.79
22031;BME280;11179;52.106;21.024;2024-03-08T10:57:53;101135.75;;;9.99;35.61
22031;BME280;11179;52.106;21.024;2024-03-08T11:00:20;101129.53;;;9.92;35.65
22031;BME280;11179;52.106;21.024;2024-03-08T11:02:53;101131.69;;;9.90;36.01
22031;BME280;11179;52.106;21.024;2024-03-08T11:05:39;101127.88;;;9.91;35.95
22031;BME280;11179;52.106;21.024;2024-03-08T11:10:49;101126.78;;;9.92;36.23
22031;BME280;11179;52.106;21.024;2024-03-08T11:13:37;101123.59;;;9.95;36.14
22031;BME280;11179;52.106;21.024;2024-03-08T11:19:44;101129.53;;;9.92;35.61
22031;BME280;11179;52.106;21.024;2024-03-08T11:21:43;101122.34;;;9.79;35.61
22031;BME280;11179;52.106;21.024;2024-03-08T11:24:11;101113.94;;;9.74;35.62
22031;BME280;11179;52.106;21.024;2024-03-08T11:26:38;101101.88;;;9.63;35.23
22031;BME280;11179;52.106;21.024;2024-03-08T11:32:15;101107.25;;;9.58;35.62
22031;BME280;11179;52.106;21.024;2024-03-08T11:34:50;101103.31;;;9.54;35.49
22031;BME280;11179;52.106;21.024;2024-03-08T11:37:17;101102.09;;;9.50;35.59
22031;BME280;11179;52.106;21.024;2024-03-08T11:39:47;101098.28;;;9.51;35.69
22031;BME280;11179;52.106;21.024;2024-03-08T11:42:14;101094.47;;;9.52;35.78
22031;BME280;11179;52.106;21.024;2024-03-08T11:44:42;101091.13;;;9.50;36.01
22031;BME280;11179;52.106;21.024;2024-03-08T11:47:12;101091.72;;;9.52;35.67
22031;BME280;11179;52.106;21.024;2024-03-08T11:49:38;101089.91;;;9.46;35.83
22031;BME280;11179;52.106;21.024;2024-03-08T11:52:05;101085.22;;;9.35;35.51
22031;BME280;11179;52.106;21.024;2024-03-08T11:54:30;101090.09;;;9.33;35.51
22031;BME280;11179;52.106;21.024;2024-03-08T11:56:59;101080.59;;;9.35;35.85
22031;BME280;11179;52.106;21.024;2024-03-08T11:59:31;101080.34;;;9.37;35.99
22031;BME280;11179;52.106;21.024;2024-03-08T12:02:04;101068.94;;;9.40;36.06
22031;BME280;11179;52.106;21.024;2024-03-08T12:04:31;101069.66;;;9.47;36.14
22031;BME280;11179;52.106;21.024;2024-03-08T12:06:59;101069.97;;;9.27;34.87
22031;BME280;11179;52.106;21.024;2024-03-08T12:09:33;101070.53;;;9.18;35.49
22031;BME280;11179;52.106;21.024;2024-03-08T12:12:01;101073.28;;;9.18;35.37
22031;BME280;11179;52.106;21.024;2024-03-08T12:14:28;101068.13;;;9.21;35.62
22031;BME280;11179;52.106;21.024;2024-03-08T12:16:54;101065.31;;;9.28;35.31
22031;BME280;11179;52.106;21.024;2024-03-08T12:19:19;101055.53;;;9.32;35.09
22031;BME280;11179;52.106;21.024;2024-03-08T12:21:45;101063.75;;;9.32;35.14
22031;BME280;11179;52.106;21.024;2024-03-08T12:24:16;101053.41;;;9.34;35.43
22031;BME280;11179;52.106;21.024;2024-03-08T12:26:45;101062.47;;;9.34;34.86
22031;BME280;11179;52.106;21.024;2024-03-08T12:29:15;101054.34;;;9.28;34.93
22031;BME280;11179;52.106;21.024;2024-03-08T12:31:46;101052.69;;;9.27;34.67
22031;BME280;11179;52.106;21.024;2024-03-08T12:34:12;101050.41;;;9.24;34.64
22031;BME280;11179;52.106;21.024;2024-03-08T12:36:44;101043.97;;;9.18;34.94
22031;BME280;11179;52.106;21.024;2024-03-08T12:39:10;101047.19;;;9.27;35.28
22031;BME280;11179;52.106;21.024;2024-03-08T12:41:39;101039.47;;;9.35;35.62
22031;BME280;11179;52.106;21.024;2024-03-08T12:44:06;101042.59;;;9.39;35.76
22031;BME280;11179;52.106;21.024;2024-03-08T12:46:32;101039.38;;;9.42;35.86
22031;BME280;11179;52.106;21.024;2024-03-08T12:48:58;101031.00;;;9.25;35.54
22031;BME280;11179;52.106;21.024;2024-03-08T12:51:24;101024.19;;;9.16;35.98
22031;BME280;11179;52.106;21.024;2024-03-08T12:53:50;101022.84;;;9.19;36.32
22031;BME280;11179;52.106;21.024;2024-03-08T12:56:29;101020.88;;;9.26;35.91